sensor_id;sensor_type;location;lat;lon;timestamp;P1;durP1;ratioP1;P2;durP2;ratioP2
14268;SDS011;7218;51.480;7.006;2023-04-30T00:02:23;8.45;;;7.05;;
14268;SDS011;7218;51.480;7.006;2023-04-30T00:04:49;10.05;;;7.40;;
14268;SDS011;7218;51.480;7.006;2023-04-30T00:07:16;10.02;;;7.60;;
14268;SDS011;7218;51.480;7.006;2023-04-30T00:09:42;11.77;;;7.97;;
14268;SDS011;7218;51.480;7.006;2023-04-30T00:12:09;10.32;;;7.45;;
14268;SDS011;7218;51.480;7.006;2023-04-30T00:14:35;8.27;;;6.90;;
14268;SDS011;7218;51.480;7.006;2023-04-30T00:17:01;11.10;;;7.57;;
14268;SDS011;7218;51.480;7.006;2023-04-30T00:19:29;10.98;;;7.50;;
14268;SDS011;7218;51.480;7.006;2023-04-30T00:21:56;10.32;;;7.78;;
14268;SDS011;7218;51.480;7.006;2023-04-30T00:24:25;11.57;;;7.63;;
14268;SDS011;7218;51.480;7.006;2023-04-30T00:26:52;9.13;;;7.72;;
14268;SDS011;7218;51.480;7.006;2023-04-30T00:29:18;8.75;;;7.85;;
14268;SDS011;7218;51.480;7.006;2023-04-30T00:31:45;11.57;;;8.60;;
14268;SDS011;7218;51.480;7.006;2023-04-30T00:34:11;11.77;;;8.18;;
14268;SDS011;7218;51.480;7.006;2023-04-30T00:36:39;12.15;;;8.50;;
14268;SDS011;7218;51.480;7.006;2023-04-30T00:39:05;10.23;;;7.85;;
14268;SDS011;7218;51.480;7.006;2023-04-30T00:41:32;9.90;;;8.07;;
14268;SDS011;7218;51.480;7.006;2023-04-30T00:44:00;10.10;;;7.78;;
14268;SDS011;7218;51.480;7.006;2023-04-30T00:46:27;10.70;;;8.20;;
14268;SDS011;7218;51.480;7.006;2023-04-30T00:48:54;13.35;;;8.32;;
14268;SDS011;7218;51.480;7.006;2023-04-30T00:51:21;10.20;;;8.75;;
14268;SDS011;7218;51.480;7.006;2023-04-30T00:53:50;10.73;;;8.52;;
14268;SDS011;7218;51.480;7.006;2023-04-30T00:56:16;10.20;;;8.18;;
14268;SDS011;7218;51.480;7.006;2023-04-30T00:58:43;10.23;;;7.97;;
14268;SDS011;7218;51.480;7.006;2023-04-30T01:01:10;11.82;;;8.20;;
14268;SDS011;7218;51.480;7.006;2023-04-30T01:03:37;10.80;;;8.88;;
14268;SDS011;7218;51.480;7.006;2023-04-30T01:06:04;11.57;;;8.73;;
14268;SDS011;7218;51.480;7.006;2023-04-30T01:08:31;10.20;;;8.70;;
14268;SDS011;7218;51.480;7.006;2023-04-30T01:11:04;10.40;;;9.15;;
14268;SDS011;7218;51.480;7.006;2023-04-30T01:13:38;13.48;;;8.95;;
14268;SDS011;7218;51.480;7.006;2023-04-30T01:16:10;10.43;;;9.07;;
14268;SDS011;7218;51.480;7.006;2023-04-30T01:18:47;11.45;;;9.45;;
14268;SDS011;7218;51.480;7.006;2023-04-30T01:21:17;12.75;;;9.07;;
14268;SDS011;7218;51.480;7.006;2023-04-30T01:23:53;12.45;;;9.18;;
14268;SDS011;7218;51.480;7.006;2023-04-30T01:26:34;12.57;;;9.40;;
14268;SDS011;7218;51.480;7.006;2023-04-30T01:29:14;12.10;;;8.98;;
14268;SDS011;7218;51.480;7.006;2023-04-30T01:31:42;13.60;;;10.00;;
14268;SDS011;7218;51.480;7.006;2023-04-30T01:34:09;10.65;;;8.85;;
14268;SDS011;7218;51.480;7.006;2023-04-30T01:36:39;14.25;;;9.68;;
14268;SDS011;7218;51.480;7.006;2023-04-30T01:39:20;12.05;;;9.20;;
14268;SDS011;7218;51.480;7.006;2023-04-30T01:42:00;12.50;;;9.32;;
14268;SDS011;7218;51.480;7.006;2023-04-30T01:44:42;13.05;;;10.02;;
14268;SDS011;7218;51.480;7.006;2023-04-30T01:47:19;11.55;;;9.05;;
14268;SDS011;7218;51.480;7.006;2023-04-30T01:49:56;14.02;;;9.70;;
14268;SDS011;7218;51.480;7.006;2023-04-30T01:52:34;12.90;;;9.63;;
14268;SDS011;7218;51.480;7.006;2023-04-30T01:55:06;11.75;;;9.57;;
14268;SDS011;7218;51.480;7.006;2023-04-30T01:57:38;12.32;;;9.40;;
14268;SDS011;7218;51.480;7.006;2023-04-30T02:00:09;11.77;;;9.65;;
14268;SDS011;7218;51.480;7.006;2023-04-30T02:02:37;10.43;;;8.93;;
14268;SDS011;7218;51.480;7.006;2023-04-30T02:05:04;11.13;;;9.68;;
14268;SDS011;7218;51.480;7.006;2023-04-30T02:07:35;14.45;;;9.98;;
14268;SDS011;7218;51.480;7.006;2023-04-30T02:10:04;12.13;;;9.88;;
14268;SDS011;7218;51.480;7.006;2023-04-30T02:12:32;11.98;;;9.55;;
14268;SDS011;7218;51.480;7.006;2023-04-30T02:14:59;11.68;;;9.65;;
14268;SDS011;7218;51.480;7.006;2023-04-30T02:17:27;12.75;;;9.80;;
14268;SDS011;7218;51.480;7.006;2023-04-30T02:19:54;13.55;;;10.25;;
14268;SDS011;7218;51.480;7.006;2023-04-30T02:22:20;13.52;;;9.93;;
14268;SDS011;7218;51.480;7.006;2023-04-30T02:24:47;13.80;;;11.02;;
14268;SDS011;7218;51.480;7.006;2023-04-30T02:27:14;13.88;;;10.38;;
14268;SDS011;7218;51.480;7.006;2023-04-30T02:29:40;14.13;;;10.40;;
14268;SDS011;7218;51.480;7.006;2023-04-30T02:32:07;14.68;;;10.48;;
14268;SDS011;7218;51.480;7.006;2023-04-30T02:34:35;13.25;;;10.48;;
14268;SDS011;7218;51.480;7.006;2023-04-30T02:37:01;13.02;;;10.13;;
14268;SDS011;7218;51.480;7.006;2023-04-30T02:39:28;15.65;;;10.43;;
14268;SDS011;7218;51.480;7.006;2023-04-30T02:41:54;11.68;;;10.20;;
14268;SDS011;7218;51.480;7.006;2023-04-30T02:44:21;14.20;;;10.57;;
14268;SDS011;7218;51.480;7.006;2023-04-30T02:46:47;12.88;;;10.77;;
14268;SDS011;7218;51.480;7.006;2023-04-30T02:49:14;14.07;;;10.63;;
14268;SDS011;7218;51.480;7.006;2023-04-30T02:51:42;13.25;;;10.77;;
14268;SDS011;7218;51.480;7.006;2023-04-30T02:54:08;12.63;;;10.35;;
14268;SDS011;7218;51.480;7.006;2023-04-30T02:56:35;14.82;;;10.52;;
14268;SDS011;7218;51.480;7.006;2023-04-30T02:59:02;14.35;;;11.00;;
14268;SDS011;7218;51.480;7.006;2023-04-30T03:01:29;14.93;;;10.65;;
14268;SDS011;7218;51.480;7.006;2023-04-30T03:03:55;13.70;;;10.77;;
14268;SDS011;7218;51.480;7.006;2023-04-30T03:06:22;13.85;;;11.15;;
14268;SDS011;7218;51.480;7.006;2023-04-30T03:08:50;14.55;;;11.05;;
14268;SDS011;7218;51.480;7.006;2023-04-30T03:11:17;16.50;;;11.15;;
14268;SDS011;7218;51.480;7.006;2023-04-30T03:13:44;13.88;;;10.98;;
14268;SDS011;7218;51.480;7.006;2023-04-30T03:16:10;15.65;;;10.93;;
14268;SDS011;7218;51.480;7.006;2023-04-30T03:18:37;14.05;;;10.93;;
14268;SDS011;7218;51.480;7.006;2023-04-30T03:21:03;14.70;;;10.85;;
14268;SDS011;7218;51.480;7.006;2023-04-30T03:23:30;12.35;;;10.45;;
14268;SDS011;7218;51.480;7.006;2023-04-30T03:25:58;13.80;;;10.68;;
14268;SDS011;7218;51.480;7.006;2023-04-30T03:28:24;13.18;;;10.55;;
14268;SDS011;7218;51.480;7.006;2023-04-30T03:30:51;12.27;;;10.98;;
14268;SDS011;7218;51.480;7.006;2023-04-30T03:33:17;12.75;;;10.65;;
14268;SDS011;7218;51.480;7.006;2023-04-30T03:35:44;13.10;;;10.45;;
14268;SDS011;7218;51.480;7.006;2023-04-30T03:38:10;14.38;;;10.60;;
14268;SDS011;7218;51.480;7.006;2023-04-30T03:40:37;15.52;;;11.27;;
14268;SDS011;7218;51.480;7.006;2023-04-30T03:43:05;13.80;;;11.27;;
14268;SDS011;7218;51.480;7.006;2023-04-30T03:45:31;14.73;;;11.38;;
14268;SDS011;7218;51.480;7.006;2023-04-30T03:47:58;13.85;;;10.73;;
14268;SDS011;7218;51.480;7.006;2023-04-30T03:50:24;12.98;;;10.98;;
14268;SDS011;7218;51.480;7.006;2023-04-30T03:52:51;14.82;;;11.65;;
14268;SDS011;7218;51.480;7.006;2023-04-30T03:55:17;13.63;;;11.38;;
14268;SDS011;7218;51.480;7.006;2023-04-30T03:57:44;15.48;;;11.30;;
14268;SDS011;7218;51.480;7.006;2023-04-30T04:00:12;14.10;;;11.60;;
14268;SDS011;7218;51.480;7.006;2023-04-30T04:02:39;14.77;;;11.45;;
14268;SDS011;7218;51.480;7.006;2023-04-30T04:05:06;14.27;;;11.90;;
14268;SDS011;7218;51.480;7.006;2023-04-30T04:07:33;14.35;;;11.40;;
14268;SDS011;7218;51.480;7.006;2023-04-30T04:09:59;16.25;;;11.65;;
14268;SDS011;7218;51.480;7.006;2023-04-30T04:12:26;13.88;;;11.63;;
14268;SDS011;7218;51.480;7.006;2023-04-30T04:14:53;14.30;;;11.48;;
14268;SDS011;7218;51.480;7.006;2023-04-30T04:17:21;12.93;;;11.05;;
14268;SDS011;7218;51.480;7.006;2023-04-30T04:19:47;13.02;;;11.18;;
14268;SDS011;7218;51.480;7.006;2023-04-30T04:22:14;14.88;;;11.32;;
14268;SDS011;7218;51.480;7.006;2023-04-30T04:24:41;14.23;;;11.25;;
14268;SDS011;7218;51.480;7.006;2023-04-30T04:27:07;12.80;;;10.90;;
14268;SDS011;7218;51.480;7.006;2023-04-30T04:29:34;14.10;;;12.00;;
14268;SDS011;7218;51.480;7.006;2023-04-30T04:32:00;13.30;;;11.70;;
14268;SDS011;7218;51.480;7.006;2023-04-30T04:34:31;13.40;;;11.60;;
14268;SDS011;7218;51.480;7.006;2023-04-30T04:36:57;14.23;;;11.63;;
14268;SDS011;7218;51.480;7.006;2023-04-30T04:39:24;13.65;;;11.65;;
14268;SDS011;7218;51.480;7.006;2023-04-30T04:41:50;13.63;;;11.20;;
14268;SDS011;7218;51.480;7.006;2023-04-30T04:44:17;13.43;;;11.57;;
14268;SDS011;7218;51.480;7.006;2023-04-30T04:46:43;13.98;;;11.27;;
14268;SDS011;7218;51.480;7.006;2023-04-30T04:49:10;14.40;;;11.25;;
14268;SDS011;7218;51.480;7.006;2023-04-30T04:51:37;15.45;;;11.85;;
14268;SDS011;7218;51.480;7.006;2023-04-30T04:54:04;13.68;;;10.73;;
14268;SDS011;7218;51.480;7.006;2023-04-30T04:56:31;13.57;;;11.45;;
14268;SDS011;7218;51.480;7.006;2023-04-30T04:58:58;15.85;;;11.57;;
14268;SDS011;7218;51.480;7.006;2023-04-30T05:01:24;14.13;;;11.27;;
14268;SDS011;7218;51.480;7.006;2023-04-30T05:03:51;13.23;;;10.77;;
14268;SDS011;7218;51.480;7.006;2023-04-30T05:06:18;13.70;;;11.32;;
14268;SDS011;7218;51.480;7.006;2023-04-30T05:08:46;14.27;;;11.13;;
14268;SDS011;7218;51.480;7.006;2023-04-30T05:11:12;13.20;;;10.63;;
14268;SDS011;7218;51.480;7.006;2023-04-30T05:13:39;12.18;;;10.57;;
14268;SDS011;7218;51.480;7.006;2023-04-30T05:16:05;14.20;;;10.85;;
14268;SDS011;7218;51.480;7.006;2023-04-30T05:18:32;14.15;;;10.35;;
14268;SDS011;7218;51.480;7.006;2023-04-30T05:20:58;11.23;;;10.00;;
14268;SDS011;7218;51.480;7.006;2023-04-30T05:23:25;14.32;;;10.90;;
14268;SDS011;7218;51.480;7.006;2023-04-30T05:25:53;12.82;;;10.50;;
14268;SDS011;7218;51.480;7.006;2023-04-30T05:28:21;14.73;;;11.05;;
14268;SDS011;7218;51.480;7.006;2023-04-30T05:30:47;12.93;;;10.25;;
14268;SDS011;7218;51.480;7.006;2023-04-30T05:33:14;12.77;;;10.63;;
14268;SDS011;7218;51.480;7.006;2023-04-30T05:35:40;15.15;;;10.43;;
14268;SDS011;7218;51.480;7.006;2023-04-30T05:38:07;13.57;;;10.20;;
14268;SDS011;7218;51.480;7.006;2023-04-30T05:40:33;12.38;;;10.27;;
14268;SDS011;7218;51.480;7.006;2023-04-30T05:43:01;11.63;;;9.95;;
14268;SDS011;7218;51.480;7.006;2023-04-30T05:45:27;13.10;;;9.88;;
14268;SDS011;7218;51.480;7.006;2023-04-30T05:47:54;12.23;;;9.82;;
14268;SDS011;7218;51.480;7.006;2023-04-30T05:50:20;15.05;;;10.02;;
14268;SDS011;7218;51.480;7.006;2023-04-30T05:52:47;11.85;;;9.90;;
14268;SDS011;7218;51.480;7.006;2023-04-30T05:55:13;12.48;;;10.55;;
14268;SDS011;7218;51.480;7.006;2023-04-30T05:57:40;12.82;;;10.18;;
14268;SDS011;7218;51.480;7.006;2023-04-30T06:00:09;13.52;;;10.32;;
14268;SDS011;7218;51.480;7.006;2023-04-30T06:02:36;11.73;;;9.73;;
14268;SDS011;7218;51.480;7.006;2023-04-30T06:05:03;12.50;;;10.35;;
14268;SDS011;7218;51.480;7.006;2023-04-30T06:07:30;16.17;;;10.32;;
14268;SDS011;7218;51.480;7.006;2023-04-30T06:09:56;12.00;;;10.38;;
14268;SDS011;7218;51.480;7.006;2023-04-30T06:12:23;12.68;;;10.15;;
14268;SDS011;7218;51.480;7.006;2023-04-30T06:14:50;13.70;;;9.90;;
14268;SDS011;7218;51.480;7.006;2023-04-30T06:17:18;13.90;;;10.43;;
14268;SDS011;7218;51.480;7.006;2023-04-30T06:19:44;14.02;;;10.45;;
14268;SDS011;7218;51.480;7.006;2023-04-30T06:22:11;12.85;;;10.50;;
14268;SDS011;7218;51.480;7.006;2023-04-30T06:24:37;12.18;;;9.80;;
14268;SDS011;7218;51.480;7.006;2023-04-30T06:27:04;12.23;;;10.20;;
14268;SDS011;7218;51.480;7.006;2023-04-30T06:29:30;13.55;;;10.57;;
14268;SDS011;7218;51.480;7.006;2023-04-30T06:31:57;14.45;;;10.38;;
14268;SDS011;7218;51.480;7.006;2023-04-30T06:34:25;12.95;;;10.07;;
14268;SDS011;7218;51.480;7.006;2023-04-30T06:36:51;13.18;;;10.02;;
14268;SDS011;7218;51.480;7.006;2023-04-30T06:39:18;11.65;;;9.80;;
14268;SDS011;7218;51.480;7.006;2023-04-30T06:41:45;12.63;;;10.20;;
14268;SDS011;7218;51.480;7.006;2023-04-30T06:44:12;12.05;;;9.57;;
14268;SDS011;7218;51.480;7.006;2023-04-30T06:46:39;11.90;;;9.50;;
14268;SDS011;7218;51.480;7.006;2023-04-30T06:49:05;12.98;;;9.57;;
14268;SDS011;7218;51.480;7.006;2023-04-30T06:51:33;10.43;;;9.25;;
14268;SDS011;7218;51.480;7.006;2023-04-30T06:54:00;11.75;;;9.90;;
14268;SDS011;7218;51.480;7.006;2023-04-30T06:56:26;12.20;;;9.60;;
14268;SDS011;7218;51.480;7.006;2023-04-30T06:58:53;11.45;;;9.65;;
14268;SDS011;7218;51.480;7.006;2023-04-30T07:01:20;10.35;;;8.98;;
14268;SDS011;7218;51.480;7.006;2023-04-30T07:03:46;12.00;;;9.55;;
14268;SDS011;7218;51.480;7.006;2023-04-30T07:06:13;11.15;;;8.95;;
14268;SDS011;7218;51.480;7.006;2023-04-30T07:08:40;11.45;;;9.65;;
14268;SDS011;7218;51.480;7.006;2023-04-30T07:11:07;12.43;;;9.80;;
14268;SDS011;7218;51.480;7.006;2023-04-30T07:13:34;14.32;;;9.05;;
14268;SDS011;7218;51.480;7.006;2023-04-30T07:16:01;11.50;;;9.50;;
14268;SDS011;7218;51.480;7.006;2023-04-30T07:18:27;9.93;;;8.50;;
14268;SDS011;7218;51.480;7.006;2023-04-30T07:20:54;10.43;;;8.77;;
14268;SDS011;7218;51.480;7.006;2023-04-30T07:23:20;12.15;;;8.60;;
14268;SDS011;7218;51.480;7.006;2023-04-30T07:25:48;10.88;;;9.13;;
14268;SDS011;7218;51.480;7.006;2023-04-30T07:28:23;10.18;;;8.68;;
14268;SDS011;7218;51.480;7.006;2023-04-30T07:30:50;12.07;;;8.65;;
14268;SDS011;7218;51.480;7.006;2023-04-30T07:33:17;11.02;;;9.00;;
14268;SDS011;7218;51.480;7.006;2023-04-30T07:35:43;9.90;;;8.15;;
14268;SDS011;7218;51.480;7.006;2023-04-30T07:38:10;10.38;;;9.30;;
14268;SDS011;7218;51.480;7.006;2023-04-30T07:40:36;9.50;;;8.13;;
14268;SDS011;7218;51.480;7.006;2023-04-30T07:43:04;9.25;;;8.25;;
14268;SDS011;7218;51.480;7.006;2023-04-30T07:45:32;9.13;;;7.88;;
14268;SDS011;7218;51.480;7.006;2023-04-30T07:47:59;10.68;;;8.25;;
14268;SDS011;7218;51.480;7.006;2023-04-30T07:50:26;9.20;;;7.78;;
14268;SDS011;7218;51.480;7.006;2023-04-30T07:52:57;9.48;;;7.88;;
14268;SDS011;7218;51.480;7.006;2023-04-30T07:55:24;12.32;;;8.25;;
14268;SDS011;7218;51.480;7.006;2023-04-30T07:57:50;8.75;;;7.85;;
14268;SDS011;7218;51.480;7.006;2023-04-30T08:00:18;9.13;;;7.88;;
14268;SDS011;7218;51.480;7.006;2023-04-30T08:02:45;8.55;;;7.63;;
14268;SDS011;7218;51.480;7.006;2023-04-30T08:05:12;9.52;;;7.57;;
14268;SDS011;7218;51.480;7.006;2023-04-30T08:07:38;9.95;;;7.85;;
14268;SDS011;7218;51.480;7.006;2023-04-30T08:10:06;10.57;;;7.13;;
14268;SDS011;7218;51.480;7.006;2023-04-30T08:12:34;8.32;;;7.50;;
14268;SDS011;7218;51.480;7.006;2023-04-30T08:15:01;8.88;;;7.47;;
14268;SDS011;7218;51.480;7.006;2023-04-30T08:17:30;9.82;;;6.80;;
14268;SDS011;7218;51.480;7.006;2023-04-30T08:19:57;8.82;;;6.70;;
14268;SDS011;7218;51.480;7.006;2023-04-30T08:22:24;7.32;;;6.25;;
14268;SDS011;7218;51.480;7.006;2023-04-30T08:24:50;9.35;;;6.65;;
14268;SDS011;7218;51.480;7.006;2023-04-30T08:27:19;6.28;;;5.68;;
14268;SDS011;7218;51.480;7.006;2023-04-30T08:29:45;9.00;;;6.53;;
14268;SDS011;7218;51.480;7.006;2023-04-30T08:32:12;7.18;;;5.78;;
14268;SDS011;7218;51.480;7.006;2023-04-30T08:34:39;7.63;;;5.80;;
14268;SDS011;7218;51.480;7.006;2023-04-30T08:37:07;8.57;;;6.55;;
14268;SDS011;7218;51.480;7.006;2023-04-30T08:39:34;8.30;;;5.90;;
14268;SDS011;7218;51.480;7.006;2023-04-30T08:42:00;6.53;;;5.38;;
14268;SDS011;7218;51.480;7.006;2023-04-30T08:44:29;6.30;;;5.13;;
14268;SDS011;7218;51.480;7.006;2023-04-30T08:46:57;7.35;;;5.32;;
14268;SDS011;7218;51.480;7.006;2023-04-30T08:49:25;7.03;;;5.40;;
14268;SDS011;7218;51.480;7.006;2023-04-30T08:51:53;7.22;;;5.20;;
14268;SDS011;7218;51.480;7.006;2023-04-30T08:54:20;6.47;;;5.20;;
14268;SDS011;7218;51.480;7.006;2023-04-30T08:56:50;6.82;;;4.93;;
14268;SDS011;7218;51.480;7.006;2023-04-30T08:59:16;7.63;;;5.03;;
14268;SDS011;7218;51.480;7.006;2023-04-30T09:01:43;6.57;;;5.22;;
14268;SDS011;7218;51.480;7.006;2023-04-30T09:04:09;7.70;;;5.20;;
14268;SDS011;7218;51.480;7.006;2023-04-30T09:06:36;6.60;;;4.95;;
14268;SDS011;7218;51.480;7.006;2023-04-30T09:09:08;7.30;;;4.97;;
14268;SDS011;7218;51.480;7.006;2023-04-30T09:11:36;5.10;;;4.07;;
14268;SDS011;7218;51.480;7.006;2023-04-30T09:14:03;5.30;;;4.80;;
14268;SDS011;7218;51.480;7.006;2023-04-30T09:16:30;6.00;;;5.05;;
14268;SDS011;7218;51.480;7.006;2023-04-30T09:19:21;7.43;;;5.05;;
14268;SDS011;7218;51.480;7.006;2023-04-30T09:21:48;6.85;;;4.35;;
14268;SDS011;7218;51.480;7.006;2023-04-30T09:24:16;5.60;;;4.53;;
14268;SDS011;7218;51.480;7.006;2023-04-30T09:26:42;7.78;;;5.15;;
14268;SDS011;7218;51.480;7.006;2023-04-30T09:29:11;6.03;;;5.03;;
14268;SDS011;7218;51.480;7.006;2023-04-30T09:31:38;7.28;;;5.22;;
14268;SDS011;7218;51.480;7.006;2023-04-30T09:34:08;6.53;;;4.75;;
14268;SDS011;7218;51.480;7.006;2023-04-30T09:36:35;6.20;;;4.50;;
14268;SDS011;7218;51.480;7.006;2023-04-30T09:39:05;4.78;;;4.20;;
14268;SDS011;7218;51.480;7.006;2023-04-30T09:41:34;5.30;;;4.20;;
14268;SDS011;7218;51.480;7.006;2023-04-30T09:44:01;4.78;;;4.00;;
14268;SDS011;7218;51.480;7.006;2023-04-30T09:46:31;4.88;;;4.40;;
14268;SDS011;7218;51.480;7.006;2023-04-30T09:49:05;4.82;;;4.00;;
14268;SDS011;7218;51.480;7.006;2023-04-30T09:51:31;5.10;;;4.03;;
14268;SDS011;7218;51.480;7.006;2023-04-30T09:53:59;6.68;;;4.57;;
14268;SDS011;7218;51.480;7.006;2023-04-30T09:56:28;4.75;;;4.20;;
14268;SDS011;7218;51.480;7.006;2023-04-30T09:59:00;5.50;;;4.93;;
14268;SDS011;7218;51.480;7.006;2023-04-30T10:01:29;6.95;;;4.20;;
14268;SDS011;7218;51.480;7.006;2023-04-30T10:03:57;5.72;;;4.30;;
14268;SDS011;7218;51.480;7.006;2023-04-30T10:06:24;5.22;;;4.40;;
14268;SDS011;7218;51.480;7.006;2023-04-30T10:08:55;6.13;;;4.32;;
14268;SDS011;7218;51.480;7.006;2023-04-30T10:11:22;5.10;;;4.53;;
14268;SDS011;7218;51.480;7.006;2023-04-30T10:13:53;4.97;;;4.30;;
14268;SDS011;7218;51.480;7.006;2023-04-30T10:16:29;4.95;;;3.90;;
14268;SDS011;7218;51.480;7.006;2023-04-30T10:19:02;4.05;;;3.65;;
14268;SDS011;7218;51.480;7.006;2023-04-30T10:21:33;4.75;;;3.65;;
14268;SDS011;7218;51.480;7.006;2023-04-30T10:24:00;4.15;;;3.75;;
14268;SDS011;7218;51.480;7.006;2023-04-30T10:26:27;5.15;;;4.15;;
14268;SDS011;7218;51.480;7.006;2023-04-30T10:28:55;3.58;;;3.08;;
14268;SDS011;7218;51.480;7.006;2023-04-30T10:31:24;3.55;;;3.25;;
14268;SDS011;7218;51.480;7.006;2023-04-30T10:33:56;4.07;;;3.65;;
14268;SDS011;7218;51.480;7.006;2023-04-30T10:36:33;5.90;;;4.30;;
14268;SDS011;7218;51.480;7.006;2023-04-30T10:39:05;4.80;;;4.40;;
14268;SDS011;7218;51.480;7.006;2023-04-30T10:41:32;4.57;;;4.18;;
14268;SDS011;7218;51.480;7.006;2023-04-30T10:44:00;4.70;;;3.70;;
14268;SDS011;7218;51.480;7.006;2023-04-30T10:46:29;4.68;;;4.28;;
14268;SDS011;7218;51.480;7.006;2023-04-30T10:48:57;4.63;;;4.20;;
14268;SDS011;7218;51.480;7.006;2023-04-30T10:51:25;4.35;;;3.95;;
14268;SDS011;7218;51.480;7.006;2023-04-30T10:54:09;11.00;;;4.30;;
14268;SDS011;7218;51.480;7.006;2023-04-30T10:56:37;4.10;;;3.53;;
14268;SDS011;7218;51.480;7.006;2023-04-30T10:59:04;3.85;;;3.50;;
14268;SDS011;7218;51.480;7.006;2023-04-30T11:01:31;4.18;;;3.70;;
14268;SDS011;7218;51.480;7.006;2023-04-30T11:04:23;3.97;;;3.53;;
14268;SDS011;7218;51.480;7.006;2023-04-30T11:06:53;3.88;;;3.45;;
14268;SDS011;7218;51.480;7.006;2023-04-30T11:09:33;4.28;;;3.30;;
14268;SDS011;7218;51.480;7.006;2023-04-30T11:12:02;3.80;;;3.28;;
14268;SDS011;7218;51.480;7.006;2023-04-30T11:14:31;3.63;;;3.30;;
14268;SDS011;7218;51.480;7.006;2023-04-30T11:16:58;3.08;;;2.80;;
14268;SDS011;7218;51.480;7.006;2023-04-30T11:19:27;3.35;;;3.05;;
14268;SDS011;7218;51.480;7.006;2023-04-30T11:24:59;5.68;;;2.83;;
14268;SDS011;7218;51.480;7.006;2023-04-30T11:27:30;3.22;;;2.60;;
14268;SDS011;7218;51.480;7.006;2023-04-30T11:29:57;3.10;;;2.80;;
14268;SDS011;7218;51.480;7.006;2023-04-30T11:32:30;2.92;;;2.70;;
14268;SDS011;7218;51.480;7.006;2023-04-30T11:34:59;4.05;;;2.88;;
14268;SDS011;7218;51.480;7.006;2023-04-30T11:37:29;2.70;;;2.50;;
14268;SDS011;7218;51.480;7.006;2023-04-30T11:39:57;3.83;;;3.50;;
14268;SDS011;7218;51.480;7.006;2023-04-30T11:42:26;4.75;;;4.05;;
14268;SDS011;7218;51.480;7.006;2023-04-30T11:44:54;5.65;;;2.95;;
14268;SDS011;7218;51.480;7.006;2023-04-30T11:47:37;3.30;;;3.00;;
14268;SDS011;7218;51.480;7.006;2023-04-30T11:50:06;2.70;;;2.50;;
14268;SDS011;7218;51.480;7.006;2023-04-30T11:52:33;4.03;;;2.78;;
14268;SDS011;7218;51.480;7.006;2023-04-30T11:54:59;3.78;;;3.30;;
14268;SDS011;7218;51.480;7.006;2023-04-30T11:57:26;2.75;;;2.55;;
14268;SDS011;7218;51.480;7.006;2023-04-30T12:00:06;3.22;;;2.50;;
14268;SDS011;7218;51.480;7.006;2023-04-30T12:02:35;2.95;;;2.75;;
14268;SDS011;7218;51.480;7.006;2023-04-30T12:05:01;3.10;;;2.53;;
14268;SDS011;7218;51.480;7.006;2023-04-30T12:07:29;2.78;;;2.58;;
14268;SDS011;7218;51.480;7.006;2023-04-30T12:09:56;4.07;;;2.65;;
14268;SDS011;7218;51.480;7.006;2023-04-30T12:12:27;3.50;;;3.20;;
14268;SDS011;7218;51.480;7.006;2023-04-30T12:14:53;3.60;;;3.30;;
14268;SDS011;7218;51.480;7.006;2023-04-30T12:17:29;2.20;;;2.00;;
14268;SDS011;7218;51.480;7.006;2023-04-30T12:19:56;2.38;;;1.77;;
14268;SDS011;7218;51.480;7.006;2023-04-30T12:22:23;2.58;;;2.25;;
14268;SDS011;7218;51.480;7.006;2023-04-30T12:24:51;2.40;;;2.17;;
14268;SDS011;7218;51.480;7.006;2023-04-30T12:27:19;4.22;;;2.55;;
14268;SDS011;7218;51.480;7.006;2023-04-30T12:29:46;2.50;;;2.30;;
14268;SDS011;7218;51.480;7.006;2023-04-30T12:32:15;2.45;;;1.85;;
14268;SDS011;7218;51.480;7.006;2023-04-30T12:34:43;2.58;;;1.90;;
14268;SDS011;7218;51.480;7.006;2023-04-30T12:37:13;2.65;;;2.05;;
14268;SDS011;7218;51.480;7.006;2023-04-30T12:39:40;4.38;;;2.28;;
14268;SDS011;7218;51.480;7.006;2023-04-30T12:42:08;3.13;;;1.98;;
14268;SDS011;7218;51.480;7.006;2023-04-30T12:44:41;3.28;;;2.03;;
14268;SDS011;7218;51.480;7.006;2023-04-30T12:47:11;2.40;;;2.20;;
14268;SDS011;7218;51.480;7.006;2023-04-30T12:49:38;3.05;;;1.77;;
14268;SDS011;7218;51.480;7.006;2023-04-30T12:52:07;2.00;;;1.80;;
14268;SDS011;7218;51.480;7.006;2023-04-30T12:54:34;2.65;;;2.00;;
14268;SDS011;7218;51.480;7.006;2023-04-30T12:57:03;2.67;;;2.10;;
14268;SDS011;7218;51.480;7.006;2023-04-30T12:59:33;2.42;;;2.08;;
14268;SDS011;7218;51.480;7.006;2023-04-30T13:02:07;2.05;;;1.88;;
14268;SDS011;7218;51.480;7.006;2023-04-30T13:04:35;7.38;;;6.15;;
14268;SDS011;7218;51.480;7.006;2023-04-30T13:07:02;3.47;;;2.60;;
14268;SDS011;7218;51.480;7.006;2023-04-30T13:09:30;4.28;;;2.15;;
14268;SDS011;7218;51.480;7.006;2023-04-30T13:11:56;3.42;;;1.70;;
14268;SDS011;7218;51.480;7.006;2023-04-30T13:14:23;6.93;;;4.90;;
14268;SDS011;7218;51.480;7.006;2023-04-30T13:16:51;2.97;;;2.67;;
14268;SDS011;7218;51.480;7.006;2023-04-30T13:19:18;3.28;;;2.58;;
14268;SDS011;7218;51.480;7.006;2023-04-30T13:21:44;4.30;;;2.25;;
14268;SDS011;7218;51.480;7.006;2023-04-30T13:24:11;24.90;;;19.55;;
14268;SDS011;7218;51.480;7.006;2023-04-30T13:26:37;10.07;;;9.07;;
14268;SDS011;7218;51.480;7.006;2023-04-30T13:29:04;5.03;;;3.17;;
14268;SDS011;7218;51.480;7.006;2023-04-30T13:31:31;4.18;;;3.70;;
14268;SDS011;7218;51.480;7.006;2023-04-30T13:33:59;6.13;;;5.07;;
14268;SDS011;7218;51.480;7.006;2023-04-30T13:36:25;5.40;;;4.47;;
14268;SDS011;7218;51.480;7.006;2023-04-30T13:38:52;4.72;;;3.15;;
14268;SDS011;7218;51.480;7.006;2023-04-30T13:41:19;3.90;;;2.50;;
14268;SDS011;7218;51.480;7.006;2023-04-30T13:43:46;2.83;;;1.80;;
14268;SDS011;7218;51.480;7.006;2023-04-30T13:46:13;2.85;;;1.83;;
14268;SDS011;7218;51.480;7.006;2023-04-30T13:48:40;1.90;;;1.48;;
14268;SDS011;7218;51.480;7.006;2023-04-30T13:51:08;1.60;;;1.50;;
14268;SDS011;7218;51.480;7.006;2023-04-30T13:53:35;2.55;;;1.90;;
14268;SDS011;7218;51.480;7.006;2023-04-30T13:56:01;2.75;;;1.80;;
14268;SDS011;7218;51.480;7.006;2023-04-30T13:58:28;1.95;;;1.80;;
14268;SDS011;7218;51.480;7.006;2023-04-30T14:00:54;2.78;;;2.03;;
14268;SDS011;7218;51.480;7.006;2023-04-30T14:03:21;4.00;;;2.42;;
14268;SDS011;7218;51.480;7.006;2023-04-30T14:05:47;2.10;;;1.85;;
14268;SDS011;7218;51.480;7.006;2023-04-30T14:08:18;2.33;;;1.88;;
14268;SDS011;7218;51.480;7.006;2023-04-30T14:10:45;3.35;;;2.00;;
14268;SDS011;7218;51.480;7.006;2023-04-30T14:13:11;1.65;;;1.55;;
14268;SDS011;7218;51.480;7.006;2023-04-30T14:15:37;4.32;;;2.47;;
14268;SDS011;7218;51.480;7.006;2023-04-30T14:18:04;3.78;;;2.58;;
14268;SDS011;7218;51.480;7.006;2023-04-30T14:20:31;2.50;;;2.30;;
14268;SDS011;7218;51.480;7.006;2023-04-30T14:22:57;3.33;;;2.20;;
14268;SDS011;7218;51.480;7.006;2023-04-30T14:25:25;3.00;;;1.83;;
14268;SDS011;7218;51.480;7.006;2023-04-30T14:27:52;2.40;;;1.70;;
14268;SDS011;7218;51.480;7.006;2023-04-30T14:30:19;2.35;;;1.73;;
14268;SDS011;7218;51.480;7.006;2023-04-30T14:32:45;2.85;;;1.80;;
14268;SDS011;7218;51.480;7.006;2023-04-30T14:35:12;1.80;;;1.50;;
14268;SDS011;7218;51.480;7.006;2023-04-30T14:37:38;2.65;;;1.73;;
14268;SDS011;7218;51.480;7.006;2023-04-30T14:40:07;1.55;;;1.45;;
14268;SDS011;7218;51.480;7.006;2023-04-30T14:42:38;2.42;;;1.60;;
14268;SDS011;7218;51.480;7.006;2023-04-30T14:45:05;1.63;;;1.42;;
14268;SDS011;7218;51.480;7.006;2023-04-30T14:47:33;2.20;;;1.90;;
14268;SDS011;7218;51.480;7.006;2023-04-30T14:49:59;2.35;;;1.50;;
14268;SDS011;7218;51.480;7.006;2023-04-30T14:52:26;4.15;;;1.98;;
14268;SDS011;7218;51.480;7.006;2023-04-30T14:54:53;2.10;;;1.60;;
14268;SDS011;7218;51.480;7.006;2023-04-30T14:57:20;2.47;;;1.55;;
14268;SDS011;7218;51.480;7.006;2023-04-30T14:59:48;2.22;;;1.58;;